Clough, South Dakota
Current Conditions -  °F | °C
As of 12:58 PM on Sunday 25 Jan 2015 (Local Time) from KRCA Reporting Station
Overcast Overcast  
Wind Chill: 44°   Ceiling: 8500
Heat Index: 47°   Visibility: 10mi
Dew Point: 19°   Wind: 8mph
Humidity: 32%   Direction: 190°S
Pressure: 29.98"   Gusts: NA
Location:  44.4145°N, 103.17°W
Report Text: KRCA 251958Z AUTO 19007KT 10SM FEW055 OVC085 09/M07 A2998 RMK AO2 SLP168 T00861073 $
Loading
Personal Weather Stations






























Interactive Weather Map New forecast layout! Learn more

10-Day Weather Forecast

Advertisements
Track Severe Weather on mobile